Terminal Aerodrome Forecast
Issued by NWS

Home | Current Version | Previous Version | Text Only | Print | Product List | Glossary On
Versions: 1 2 3 4 5 6 7 8 9 10 11 12 13 14 15 16 17
000
FTUS43 KEAX 250500
TAFSTJ
TAF
KSTJ 250520Z 2506/2606 30010KT 6SM BR OVC008
      TEMPO 2508/2512 3SM BR
     FM251200 16003KT P6SM SCT010 BKN100
     FM252000 01012G20KT P6SM BKN100
     FM260300 01015KT P6SM VCSH SCT030 BKN050=

USA.gov is the U.S. government's official web portal to all federal, state and local government web resources and services.